createdAt,value
2022-08-22T00:01:29.268Z,17.39
2022-08-22T00:02:49.334Z,18.00
2022-08-22T00:03:15.539Z,17.52
2022-08-22T00:04:03.288Z,17.44
2022-08-22T00:07:07.518Z,17.57
2022-08-22T00:10:04.243Z,17.49
2022-08-22T00:12:47.364Z,17.48
2022-08-22T00:15:42.409Z,17.67
2022-08-22T00:18:22.788Z,17.66
2022-08-22T00:21:08.637Z,17.64
2022-08-22T00:23:46.189Z,17.52
2022-08-22T00:26:49.457Z,17.57
2022-08-22T00:29:24.664Z,17.54
2022-08-22T00:32:11.037Z,17.61
2022-08-22T00:35:01.392Z,17.46
2022-08-22T00:37:41.201Z,17.70
2022-08-22T00:40:21.169Z,17.65
2022-08-22T00:43:14.659Z,17.57
2022-08-22T00:46:11.289Z,17.41
2022-08-22T00:49:04.856Z,17.61
2022-08-22T00:51:55.761Z,17.55
2022-08-22T00:54:58.410Z,17.37
2022-08-22T00:57:56.269Z,17.38
2022-08-22T01:00:30.306Z,17.43
2022-08-22T01:03:26.918Z,17.27
2022-08-22T01:06:23.957Z,17.55
2022-08-22T01:09:12.806Z,17.33
2022-08-22T01:12:15.378Z,17.54
2022-08-22T01:14:58.521Z,17.45
2022-08-22T01:17:50.009Z,17.39
2022-08-22T01:20:59.224Z,17.41
2022-08-22T01:23:49.805Z,17.35
2022-08-22T01:26:41.088Z,17.45
2022-08-22T01:29:40.701Z,17.29
2022-08-22T01:32:34.581Z,17.45
2022-08-22T01:35:31.609Z,17.30
2022-08-22T01:38:28.645Z,17.30
2022-08-22T01:41:30.656Z,17.35
2022-08-22T01:44:19.077Z,17.35
2022-08-22T01:46:53.060Z,17.13
2022-08-22T01:49:36.089Z,17.16
2022-08-22T01:52:12.983Z,17.35
2022-08-22T01:54:52.624Z,17.45
2022-08-22T01:57:26.289Z,17.41
2022-08-22T02:00:00.776Z,17.37
2022-08-22T02:02:37.467Z,17.54
2022-08-22T02:05:20.276Z,17.32
2022-08-22T02:08:17.028Z,17.51
2022-08-22T02:11:14.354Z,17.57
2022-08-22T02:14:10.991Z,17.44
2022-08-22T02:16:47.773Z,16.91
2022-08-22T02:19:21.817Z,16.99
2022-08-22T02:22:12.173Z,17.10
2022-08-22T02:25:09.073Z,16.95
2022-08-22T02:27:53.458Z,16.65
2022-08-22T02:30:43.446Z,16.92
2022-08-22T02:33:25.787Z,16.83
2022-08-22T02:35:59.768Z,16.84
2022-08-22T02:38:39.447Z,16.80
2022-08-22T02:41:25.013Z,16.68
2022-08-22T02:44:05.140Z,16.75
2022-08-22T02:46:52.196Z,16.82
2022-08-22T02:49:46.252Z,16.69
2022-08-22T02:52:32.555Z,16.64
2022-08-22T02:55:12.337Z,16.63
2022-08-22T02:57:48.886Z,16.61
2022-08-22T03:00:32.262Z,16.57
2022-08-22T03:03:02.667Z,16.60
2022-08-22T03:05:42.752Z,16.46
2022-08-22T03:08:34.749Z,16.37
2022-08-22T03:11:28.842Z,16.49
2022-08-22T03:14:20.739Z,16.23
2022-08-22T03:17:12.564Z,16.47
2022-08-22T03:20:07.046Z,16.50
2022-08-22T03:22:58.118Z,16.37
2022-08-22T03:25:51.802Z,16.45
2022-08-22T03:28:37.761Z,16.43
2022-08-22T03:31:20.513Z,16.30
2022-08-22T03:34:28.029Z,16.13
2022-08-22T03:37:18.478Z,16.29
2022-08-22T03:40:01.663Z,16.21
2022-08-22T03:43:04.669Z,16.32
2022-08-22T03:45:44.636Z,16.40
2022-08-22T03:48:39.418Z,16.50
2022-08-22T03:51:25.206Z,16.18
2022-08-22T03:54:15.796Z,16.30
2022-08-22T03:56:57.457Z,16.37
2022-08-22T03:59:46.238Z,16.29
2022-08-22T04:02:31.513Z,16.24
2022-08-22T04:05:23.024Z,16.39
2022-08-22T04:08:06.971Z,16.35
2022-08-22T04:10:43.123Z,16.31
2022-08-22T04:13:52.046Z,16.55
2022-08-22T04:16:31.859Z,16.55
2022-08-22T04:19:11.147Z,16.34
2022-08-22T04:22:01.732Z,16.21
2022-08-22T04:24:35.559Z,16.18
2022-08-22T04:27:21.454Z,16.16
2022-08-22T04:30:13.110Z,16.39
2022-08-22T04:32:49.429Z,16.34
2022-08-22T04:35:39.921Z,16.25
2022-08-22T04:38:25.946Z,16.12
2022-08-22T04:41:04.252Z,16.45
2022-08-22T04:43:39.173Z,16.42
2022-08-22T04:46:33.752Z,16.36
2022-08-22T04:49:02.059Z,16.29
2022-08-22T04:51:39.142Z,16.37
2022-08-22T04:54:12.868Z,16.43
2022-08-22T04:57:11.140Z,16.50
2022-08-22T04:59:43.347Z,16.44
2022-08-22T05:02:18.798Z,16.53
2022-08-22T05:04:55.355Z,16.48
2022-08-22T05:07:33.938Z,16.52
2022-08-22T05:10:09.113Z,16.63
2022-08-22T05:12:40.831Z,16.67
2022-08-22T05:15:19.026Z,16.52
2022-08-22T05:17:53.363Z,16.73
2022-08-22T05:20:27.676Z,16.59
2022-08-22T05:23:05.793Z,16.76
2022-08-22T05:25:39.472Z,16.67
2022-08-22T05:28:13.533Z,16.68
2022-08-22T05:30:47.193Z,16.79
2022-08-22T05:33:26.610Z,16.86
2022-08-22T05:36:00.579Z,16.62
2022-08-22T05:38:34.344Z,16.75
2022-08-22T05:41:10.982Z,16.55
2022-08-22T05:43:44.861Z,16.84
2022-08-22T05:46:22.036Z,16.59
2022-08-22T05:49:00.370Z,16.69
2022-08-22T05:51:51.090Z,16.76
2022-08-22T05:54:33.503Z,16.84
2022-08-22T05:57:07.382Z,16.84
2022-08-22T05:59:38.448Z,16.96
2022-08-22T06:02:15.206Z,16.89
2022-08-22T06:04:52.431Z,17.02
2022-08-22T06:07:32.287Z,16.98
2022-08-22T06:10:06.412Z,16.94
2022-08-22T06:12:43.148Z,17.05
2022-08-22T06:15:32.569Z,17.04
2022-08-22T06:18:06.969Z,17.06
2022-08-22T06:20:56.057Z,17.01
2022-08-22T06:23:48.389Z,17.00
2022-08-22T06:26:21.538Z,17.22
2022-08-22T06:28:55.958Z,17.10
2022-08-22T06:31:32.404Z,17.24
2022-08-22T06:34:06.182Z,17.25
2022-08-22T06:36:39.980Z,17.26
2022-08-22T06:39:33.701Z,17.14
2022-08-22T06:42:20.003Z,17.27
2022-08-22T06:45:02.638Z,17.30
2022-08-22T06:47:43.467Z,17.11
2022-08-22T06:50:18.541Z,17.20
2022-08-22T06:53:05.349Z,17.31
2022-08-22T06:55:39.477Z,17.39
2022-08-22T06:58:19.441Z,17.24
2022-08-22T07:00:58.991Z,17.40
2022-08-22T07:03:35.673Z,17.54
2022-08-22T07:06:07.287Z,17.31
2022-08-22T07:08:39.272Z,17.49
2022-08-22T07:11:19.994Z,17.27
2022-08-22T07:13:57.704Z,17.05
2022-08-22T07:16:41.752Z,17.18
2022-08-22T07:19:15.679Z,16.99
2022-08-22T07:21:49.138Z,16.83
2022-08-22T07:24:23.312Z,17.07
2022-08-22T07:27:06.456Z,17.12
2022-08-22T07:29:44.077Z,17.20
2022-08-22T07:32:23.588Z,17.23
2022-08-22T07:35:14.208Z,17.15
2022-08-22T07:38:05.086Z,16.70
2022-08-22T07:41:04.983Z,16.91
2022-08-22T07:43:48.201Z,16.80
2022-08-22T07:46:41.881Z,16.96
2022-08-22T07:49:19.987Z,17.05
2022-08-22T07:51:59.855Z,16.85
2022-08-22T07:54:41.947Z,16.96
2022-08-22T07:57:35.809Z,16.96
2022-08-22T08:00:11.479Z,17.22
2022-08-22T08:02:51.336Z,17.05
2022-08-22T08:05:25.186Z,16.86
2022-08-22T08:07:58.140Z,16.90
2022-08-22T08:10:32.863Z,16.89
2022-08-22T08:13:08.121Z,17.02
2022-08-22T08:15:43.597Z,16.84
2022-08-22T08:18:19.205Z,17.02
2022-08-22T08:20:54.074Z,16.97
2022-08-22T08:23:25.665Z,16.75
2022-08-22T08:26:11.563Z,16.88
2022-08-22T08:28:45.496Z,16.97
2022-08-22T08:31:21.937Z,17.05
2022-08-22T08:33:55.859Z,16.97
2022-08-22T08:36:36.449Z,17.16
2022-08-22T08:39:28.564Z,17.31
2022-08-22T08:42:15.197Z,17.13
2022-08-22T08:44:50.026Z,17.21
2022-08-22T08:47:32.764Z,17.18
2022-08-22T08:50:12.734Z,17.32
2022-08-22T08:52:49.989Z,17.44
2022-08-22T08:55:51.586Z,17.48
2022-08-22T08:58:37.876Z,17.33
2022-08-22T09:01:35.074Z,17.43
2022-08-22T09:04:34.660Z,17.37
2022-08-22T09:07:32.023Z,17.47
2022-08-22T09:10:39.489Z,17.57
2022-08-22T09:13:42.657Z,17.66
2022-08-22T09:16:30.277Z,17.62
2022-08-22T09:19:21.072Z,17.47
2022-08-22T09:22:01.039Z,17.57
2022-08-22T09:25:08.390Z,17.68
2022-08-22T09:28:00.632Z,17.83
2022-08-22T09:30:34.867Z,17.45
2022-08-22T09:33:08.973Z,17.76
2022-08-22T09:35:56.400Z,17.85
2022-08-22T09:38:36.360Z,17.78
2022-08-22T09:41:16.528Z,18.03
2022-08-22T09:43:51.987Z,17.95
2022-08-22T09:46:32.130Z,18.07
2022-08-22T09:49:07.399Z,18.06
2022-08-22T09:51:50.420Z,18.02
2022-08-22T09:54:39.434Z,18.16
2022-08-22T09:57:30.986Z,18.26
2022-08-22T10:00:25.165Z,18.09
2022-08-22T10:03:18.917Z,18.09
2022-08-22T10:06:09.118Z,17.84
2022-08-22T10:08:58.581Z,18.12
2022-08-22T10:11:42.382Z,18.17
2022-08-22T10:14:23.088Z,18.37
2022-08-22T10:17:13.688Z,18.18
2022-08-22T10:19:59.885Z,18.64
2022-08-22T10:22:37.026Z,18.53
2022-08-22T10:25:21.020Z,18.25
2022-08-22T10:28:00.969Z,18.51
2022-08-22T10:30:51.578Z,18.52
2022-08-22T10:33:31.619Z,18.34
2022-08-22T10:36:20.787Z,18.72
2022-08-22T10:38:55.117Z,18.53
2022-08-22T10:41:45.553Z,18.54
2022-08-22T10:44:22.505Z,18.69
2022-08-22T10:46:56.412Z,18.80
2022-08-22T10:49:36.849Z,18.64
2022-08-22T10:52:15.554Z,18.89
2022-08-22T10:54:55.886Z,18.83
2022-08-22T10:57:46.608Z,18.92
2022-08-22T11:00:50.114Z,18.86
2022-08-22T11:03:40.336Z,19.04
2022-08-22T11:06:20.105Z,19.01
2022-08-22T11:09:03.220Z,19.19
2022-08-22T11:11:41.105Z,19.12
2022-08-22T11:14:38.445Z,19.12
2022-08-22T11:17:31.123Z,19.46
2022-08-22T11:20:19.905Z,19.50
2022-08-22T11:23:01.026Z,19.21
2022-08-22T11:25:52.639Z,19.45
2022-08-22T11:28:53.499Z,19.60
2022-08-22T11:31:38.459Z,19.77
2022-08-22T11:34:36.419Z,19.60
2022-08-22T11:37:43.405Z,19.80
2022-08-22T11:40:17.160Z,20.02
2022-08-22T11:42:57.140Z,19.95
2022-08-22T11:45:32.605Z,19.90
2022-08-22T11:48:23.395Z,19.88
2022-08-22T11:50:59.872Z,19.71
2022-08-22T11:53:34.321Z,19.51
2022-08-22T11:56:28.069Z,19.61
2022-08-22T11:59:05.882Z,19.69
2022-08-22T12:02:00.173Z,19.87
2022-08-22T12:04:37.451Z,19.49
2022-08-22T12:07:15.780Z,19.54
2022-08-22T12:09:54.621Z,19.49
2022-08-22T12:12:44.583Z,19.91
2022-08-22T12:15:53.926Z,19.94
2022-08-22T12:18:28.132Z,19.97
2022-08-22T12:21:24.652Z,20.04
2022-08-22T12:24:24.454Z,20.06
2022-08-22T12:26:58.612Z,19.55
2022-08-22T12:29:40.018Z,19.79
2022-08-22T12:32:17.868Z,19.89
2022-08-22T12:35:29.950Z,19.98
2022-08-22T12:38:01.020Z,19.91
2022-08-22T12:41:10.459Z,20.06
2022-08-22T12:43:52.020Z,20.07
2022-08-22T12:46:28.925Z,20.15
2022-08-22T12:49:21.099Z,20.14
2022-08-22T12:52:11.931Z,20.18
2022-08-22T12:55:19.494Z,20.31
2022-08-22T12:58:03.289Z,20.36
2022-08-22T13:00:39.095Z,20.51
2022-08-22T13:03:14.532Z,20.50
2022-08-22T13:05:56.740Z,20.28
2022-08-22T13:08:30.170Z,20.33
2022-08-22T13:11:16.752Z,20.23
2022-08-22T13:13:56.037Z,20.56
2022-08-22T13:16:23.717Z,20.19
2022-08-22T13:18:57.826Z,20.51
2022-08-22T13:21:36.127Z,20.54
2022-08-22T13:24:10.828Z,20.46
2022-08-22T13:26:51.894Z,20.28
2022-08-22T13:29:26.712Z,20.42
2022-08-22T13:32:02.381Z,20.53
2022-08-22T13:34:43.658Z,20.50
2022-08-22T13:37:33.028Z,20.66
2022-08-22T13:40:08.356Z,20.74
2022-08-22T13:42:48.333Z,20.87
2022-08-22T13:45:25.118Z,20.65
2022-08-22T13:48:03.854Z,20.90
2022-08-22T13:50:53.362Z,20.88
2022-08-22T13:53:14.389Z,20.63
2022-08-22T13:55:50.949Z,20.64
2022-08-22T13:58:47.778Z,20.97
2022-08-22T14:01:31.665Z,21.12
2022-08-22T14:04:29.053Z,20.93
2022-08-22T14:07:07.077Z,20.74
2022-08-22T14:09:59.391Z,20.82
2022-08-22T14:12:49.854Z,21.05
2022-08-22T14:15:13.156Z,20.87
2022-08-22T14:17:48.345Z,21.26
2022-08-22T14:20:32.307Z,21.37
2022-08-22T14:23:19.588Z,21.62
2022-08-22T14:25:53.209Z,21.77
2022-08-22T14:28:32.651Z,21.83
2022-08-22T14:31:13.581Z,21.70
2022-08-22T14:33:49.549Z,21.94
2022-08-22T14:36:39.883Z,21.66
2022-08-22T14:39:14.023Z,21.79
2022-08-22T14:41:56.313Z,21.91
2022-08-22T14:44:32.399Z,21.96
2022-08-22T14:47:06.927Z,21.83
2022-08-22T14:50:00.793Z,21.96
2022-08-22T14:52:37.879Z,22.05
2022-08-22T14:55:13.344Z,22.25
2022-08-22T14:57:48.805Z,22.12
2022-08-22T15:00:32.817Z,22.47
2022-08-22T15:03:19.958Z,22.34
2022-08-22T15:05:57.161Z,22.35
2022-08-22T15:08:38.028Z,22.33
2022-08-22T15:11:16.156Z,22.64
2022-08-22T15:14:06.733Z,22.61
2022-08-22T15:16:45.165Z,22.39
2022-08-22T15:19:36.371Z,22.58
2022-08-22T15:22:17.676Z,22.86
2022-08-22T15:24:54.967Z,22.56
2022-08-22T15:27:29.311Z,22.31
2022-08-22T15:30:03.111Z,22.20
2022-08-22T15:32:39.989Z,22.21
2022-08-22T15:35:32.430Z,22.04
2022-08-22T15:38:11.300Z,22.12
2022-08-22T15:40:45.614Z,22.54
2022-08-22T15:43:25.632Z,22.39
2022-08-22T15:46:18.126Z,22.44
2022-08-22T15:49:04.378Z,22.56
2022-08-22T15:51:44.445Z,22.59
2022-08-22T15:54:24.737Z,22.53
2022-08-22T15:57:13.860Z,22.41
2022-08-22T15:59:59.936Z,22.26
2022-08-22T16:02:40.309Z,22.37
2022-08-22T16:05:14.144Z,22.46
2022-08-22T16:07:50.827Z,22.22
2022-08-22T16:10:27.819Z,22.32
2022-08-22T16:13:21.022Z,22.48
2022-08-22T16:15:56.835Z,22.46
2022-08-22T16:18:44.149Z,22.34
2022-08-22T16:21:20.943Z,22.42
2022-08-22T16:24:01.229Z,22.44
2022-08-22T16:26:35.426Z,22.30
2022-08-22T16:29:18.271Z,22.22
2022-08-22T16:31:55.375Z,21.98
2022-08-22T16:34:29.568Z,22.38
2022-08-22T16:37:18.625Z,22.29
2022-08-22T16:40:08.798Z,22.30
2022-08-22T16:42:44.171Z,22.40
2022-08-22T16:45:18.091Z,22.28
2022-08-22T16:47:58.276Z,22.41
2022-08-22T16:50:36.158Z,22.38
2022-08-22T16:53:26.643Z,22.33
2022-08-22T16:56:20.330Z,22.37
2022-08-22T16:59:22.832Z,22.30
2022-08-22T17:02:03.881Z,22.44
2022-08-22T17:04:57.816Z,22.39
2022-08-22T17:07:38.089Z,22.24
2022-08-22T17:10:31.642Z,22.15
2022-08-22T17:13:11.088Z,22.12
2022-08-22T17:15:53.423Z,22.17
2022-08-22T17:18:43.992Z,21.73
2022-08-22T17:21:34.892Z,21.98
2022-08-22T17:24:33.385Z,22.13
2022-08-22T17:27:16.915Z,22.06
2022-08-22T17:30:10.861Z,21.99
2022-08-22T17:32:59.094Z,22.22
2022-08-22T17:35:47.548Z,22.17
2022-08-22T17:38:39.564Z,22.18
2022-08-22T17:41:34.248Z,21.77
2022-08-22T17:44:14.115Z,21.86
2022-08-22T17:46:47.719Z,21.98
2022-08-22T17:49:45.594Z,21.89
2022-08-22T17:52:22.422Z,21.77
2022-08-22T17:55:03.944Z,21.83
2022-08-22T17:57:37.665Z,21.72
2022-08-22T18:00:17.550Z,21.82
2022-08-22T18:03:11.631Z,21.78
2022-08-22T18:06:01.952Z,21.80
2022-08-22T18:11:40.412Z,21.63
2022-08-22T18:14:33.462Z,21.59
2022-08-22T18:17:08.631Z,21.55
2022-08-22T18:20:06.474Z,21.45
2022-08-22T18:22:49.501Z,21.64
2022-08-22T18:25:23.211Z,21.27
2022-08-22T18:27:57.141Z,21.23
2022-08-22T18:30:33.874Z,21.34
2022-08-22T18:33:15.306Z,21.24
2022-08-22T18:35:54.532Z,20.99
2022-08-22T18:38:40.053Z,21.09
2022-08-22T18:41:47.829Z,21.14
2022-08-22T18:44:26.313Z,21.22
2022-08-22T18:47:00.109Z,20.98
2022-08-22T18:49:37.145Z,20.99
2022-08-22T18:52:13.311Z,20.83
2022-08-22T18:55:16.185Z,20.91
2022-08-22T18:58:11.698Z,21.08
2022-08-22T19:00:54.720Z,20.62
2022-08-22T19:03:56.443Z,21.01
2022-08-22T19:06:50.236Z,20.85
2022-08-22T19:09:28.117Z,20.80
2022-08-22T19:12:22.287Z,20.90
2022-08-22T19:15:22.111Z,20.99
2022-08-22T19:18:00.381Z,20.85
2022-08-22T19:20:52.231Z,20.90
2022-08-22T19:23:39.764Z,20.82
2022-08-22T19:26:36.486Z,20.71
2022-08-22T19:29:23.762Z,20.59
2022-08-22T19:32:00.652Z,20.57
2022-08-22T19:34:35.118Z,20.47
2022-08-22T19:37:32.134Z,20.49
2022-08-22T19:40:02.008Z,20.25
2022-08-22T19:42:37.553Z,20.49
2022-08-22T19:45:23.458Z,20.47
2022-08-22T19:47:58.600Z,20.58
2022-08-22T19:50:33.442Z,20.58
2022-08-22T19:53:30.138Z,20.49
2022-08-22T19:56:06.548Z,20.34
2022-08-22T19:58:57.236Z,20.24
2022-08-22T20:01:47.316Z,19.87
2022-08-22T20:04:40.992Z,20.08
2022-08-22T20:07:32.397Z,20.21
2022-08-22T20:10:29.162Z,20.33
2022-08-22T20:13:09.513Z,20.26
2022-08-22T20:16:16.746Z,20.25
2022-08-22T20:19:09.468Z,19.83
2022-08-22T20:21:45.767Z,19.95
2022-08-22T20:24:22.849Z,19.92
2022-08-22T20:27:13.265Z,19.85
2022-08-22T20:29:33.374Z,19.85
2022-08-22T20:32:06.471Z,19.78
2022-08-22T20:34:40.593Z,19.87
2022-08-22T20:37:45.530Z,19.90
2022-08-22T20:40:06.357Z,19.93
2022-08-22T20:42:38.322Z,19.69
2022-08-22T20:45:12.443Z,19.78
2022-08-22T20:47:49.453Z,19.80
2022-08-22T20:50:22.437Z,19.89
2022-08-22T20:53:13.135Z,19.78
2022-08-22T20:55:50.132Z,19.67
2022-08-22T20:58:27.218Z,19.89
2022-08-22T21:01:02.629Z,19.84
2022-08-22T21:03:46.438Z,19.77
2022-08-22T21:06:20.435Z,19.70
2022-08-22T21:08:55.890Z,19.80
2022-08-22T21:11:45.462Z,19.75
2022-08-22T21:14:28.484Z,19.59
2022-08-22T21:16:59.547Z,19.46
2022-08-22T21:19:31.731Z,19.49
2022-08-22T21:22:18.143Z,19.63
2022-08-22T21:24:49.079Z,19.75
2022-08-22T21:27:23.008Z,19.53
2022-08-22T21:29:54.169Z,19.27
2022-08-22T21:32:28.147Z,19.59
2022-08-22T21:34:59.804Z,19.33
2022-08-22T21:37:46.257Z,19.33
2022-08-22T21:40:24.335Z,19.31
2022-08-22T21:43:06.640Z,19.28
2022-08-22T21:45:43.570Z,19.26
2022-08-22T21:48:37.831Z,19.24
2022-08-22T21:51:34.576Z,19.27
2022-08-22T21:54:32.439Z,19.31
2022-08-22T21:57:18.579Z,19.28
2022-08-22T21:59:59.340Z,19.27
2022-08-22T22:02:40.759Z,19.21
2022-08-22T22:05:15.030Z,19.08
2022-08-22T22:07:48.836Z,19.33
2022-08-22T22:10:23.041Z,19.21
2022-08-22T22:12:56.356Z,19.09
2022-08-22T22:15:31.851Z,19.30
2022-08-22T22:18:02.928Z,19.39
2022-08-22T22:20:34.471Z,18.99
2022-08-22T22:23:05.969Z,19.26
2022-08-22T22:25:42.122Z,19.19
2022-08-22T22:28:14.594Z,19.36
2022-08-22T22:30:49.065Z,19.17
2022-08-22T22:33:25.136Z,19.25
2022-08-22T22:35:58.204Z,19.22
2022-08-22T22:38:29.273Z,19.16
2022-08-22T22:41:00.943Z,19.12
2022-08-22T22:43:32.117Z,19.18
2022-08-22T22:46:03.074Z,19.22
2022-08-22T22:48:34.624Z,19.00
2022-08-22T22:51:11.399Z,19.08
2022-08-22T22:53:43.742Z,18.80
2022-08-22T22:56:21.262Z,18.85
2022-08-22T22:59:00.969Z,18.91
2022-08-22T23:01:27.916Z,18.97
2022-08-22T23:04:05.698Z,19.05
2022-08-22T23:06:33.516Z,19.01
2022-08-22T23:09:04.265Z,19.11
2022-08-22T23:11:36.130Z,19.02
2022-08-22T23:14:06.997Z,18.80
2022-08-22T23:16:40.603Z,18.97
2022-08-22T23:19:13.935Z,18.96
2022-08-22T23:21:46.246Z,19.17
2022-08-22T23:24:18.096Z,19.10
2022-08-22T23:26:48.938Z,18.81
2022-08-22T23:29:19.994Z,18.91
2022-08-22T23:31:56.989Z,18.91
2022-08-22T23:34:30.798Z,18.85
2022-08-22T23:37:05.778Z,19.01
2022-08-22T23:39:38.609Z,19.13
2022-08-22T23:42:10.833Z,18.90
2022-08-22T23:44:43.327Z,19.12
2022-08-22T23:47:15.485Z,18.75
2022-08-22T23:49:46.560Z,19.00
2022-08-22T23:52:17.518Z,18.79
2022-08-22T23:54:54.298Z,18.84
2022-08-22T23:57:26.412Z,18.82
2022-08-22T23:59:57.710Z,18.93
